Time;durP1;ratioP1;P1;durP2;ratioP2;P2;SDS_P1;SDS_P2;PMS_P1;PMS_P2;Temp;Humidity;BMP_temperature;BMP_pressure;BME280_temperature;BME280_humidity;BME280_pressure;Samples;Min_cycle;Max_cycle;Signal;HPM_P1;HPM_P2
2023/01/07 00:01:45;;;;;;;;;;;9.80;99.90;;;;;;5030750;28;20676;-71
2023/01/07 00:04:12;;;;;;;;;;;9.80;99.90;;;;;;5053662;28;19928;-71
2023/01/07 00:06:38;;;;;;;;;;;9.80;99.90;;;;;;5030851;28;19921;-71
2023/01/07 00:09:05;;;;;;;;;;;10.10;99.90;;;;;;5033422;28;19967;-71
2023/01/07 00:11:32;;;;;;;;;;;10.20;99.90;;;;;;5031497;28;19925;-71
2023/01/07 00:13:58;;;;;;;;;;;9.90;99.90;;;;;;5030791;28;19979;-71
2023/01/07 00:16:26;;;;;;;;;;;9.90;99.90;;;;;;5030842;28;19935;-71
2023/01/07 00:18:52;;;;;;;;;;;9.90;99.90;;;;;;5032626;28;19925;-71
2023/01/07 00:21:18;;;;;;;;;;;9.80;99.90;;;;;;5026771;28;20288;-71
2023/01/07 00:23:44;;;;;;;;;;;9.90;99.90;;;;;;5032843;28;19966;-71
2023/01/07 00:26:12;;;;;;;;;;;9.90;99.90;;;;;;5032984;28;19971;-71
2023/01/07 00:28:38;;;;;;;;;;;9.90;99.90;;;;;;5028420;28;20008;-71
2023/01/07 00:31:14;;;;;;;;;;;10.20;99.90;;;;;;5030789;28;19967;-71
2023/01/07 00:33:48;;;;;;;;;;;9.90;99.90;;;;;;5031096;28;19937;-71
2023/01/07 00:36:13;;;;;;;;;;;9.90;99.90;;;;;;5030540;28;19921;-72
2023/01/07 00:38:39;;;;;;;;;;;10.00;99.90;;;;;;5032531;28;19959;-71
2023/01/07 00:41:04;;;;;;;;;;;10.00;99.90;;;;;;5031469;28;19928;-71
2023/01/07 00:43:30;;;;;;;;;;;10.00;99.90;;;;;;5029543;28;19925;-71
2023/01/07 00:45:56;;;;;;;;;;;10.00;99.90;;;;;;5032702;28;19921;-71
2023/01/07 00:48:22;;;;;;;;;;;10.50;99.90;;;;;;5030881;28;20380;-72
2023/01/07 00:50:48;;;;;;;;;;;10.00;99.90;;;;;;5028259;28;19921;-71
2023/01/07 00:53:14;;;;;;;;;;;10.00;99.90;;;;;;5030319;28;19928;-71
2023/01/07 00:55:40;;;;;;;;;;;10.00;99.90;;;;;;5031831;28;20323;-71
2023/01/07 00:58:05;;;;;;;;;;;10.30;99.90;;;;;;5029348;28;19928;-71
2023/01/07 01:00:31;;;;;;;;;;;10.20;99.90;;;;;;5031502;28;19925;-71
2023/01/07 01:02:58;;;;;;;;;;;10.10;99.90;;;;;;5029755;28;20372;-71
2023/01/07 01:05:24;;;;;;;;;;;10.00;99.90;;;;;;5014468;28;20066;-71
2023/01/07 01:07:49;;;;;;;;;;;10.20;99.90;;;;;;5032017;28;19921;-71
2023/01/07 01:10:16;;;;;;;;;;;10.10;99.90;;;;;;5013863;28;19921;-71
2023/01/07 01:12:42;;;;;;;;;;;10.10;99.90;;;;;;5014133;28;19948;-71
2023/01/07 01:15:09;;;;;;;;;;;10.40;99.90;;;;;;5032656;28;19921;-71
2023/01/07 01:17:35;;;;;;;;;;;10.20;99.90;;;;;;5013319;28;19957;-71
2023/01/07 01:20:00;;;;;;;;;;;10.30;99.90;;;;;;5032044;28;19959;-72
2023/01/07 01:22:26;;;;;;;;;;;10.30;99.90;;;;;;5013871;28;20430;-71
2023/01/07 01:24:52;;;;;;;;;;;10.20;99.90;;;;;;5013558;28;19925;-71
2023/01/07 01:27:18;;;;;;;;;;;10.30;99.90;;;;;;5013874;28;19929;-72
2023/01/07 01:29:43;;;;;;;;;;;10.30;99.90;;;;;;5032027;28;19979;-71
2023/01/07 01:32:09;;;;;;;;;;;10.50;99.90;;;;;;5031604;28;19928;-71
2023/01/07 01:34:34;;;;;;;;;;;10.40;99.90;;;;;;5031381;28;19921;-71
2023/01/07 01:37:00;;;;;;;;;;;10.40;99.90;;;;;;5019206;28;19925;-71
2023/01/07 01:39:26;;;;;;;;;;;10.40;99.90;;;;;;5013244;28;19921;-72
2023/01/07 01:41:51;;;;;;;;;;;10.40;99.90;;;;;;5014119;28;19921;-72
2023/01/07 01:44:32;;;;;;;;;;;10.50;99.90;;;;;;5011432;28;19999;-69
2023/01/07 01:46:58;;;;;;;;;;;10.20;99.90;;;;;;5031129;28;19921;-69
2023/01/07 01:49:29;;;;;;;;;;;10.30;99.90;;;;;;5031281;28;19932;-69
2023/01/07 01:51:57;;;;;;;;;;;10.20;99.90;;;;;;5031920;28;19929;-69
2023/01/07 01:54:24;;;;;;;;;;;10.50;99.90;;;;;;5030037;28;19921;-69
2023/01/07 01:56:51;;;;;;;;;;;10.20;99.90;;;;;;5031754;28;19928;-68
2023/01/07 01:59:19;;;;;;;;;;;10.20;99.90;;;;;;5030337;28;20299;-69
2023/01/07 02:01:45;;;;;;;;;;;10.20;99.90;;;;;;5031514;28;19975;-69
2023/01/07 02:04:12;;;;;;;;;;;10.10;99.90;;;;;;5031285;28;19925;-69
2023/01/07 02:06:43;;;;;;;;;;;10.10;99.90;;;;;;5013070;28;20008;-69
2023/01/07 02:09:12;;;;;;;;;;;10.20;99.90;;;;;;5015262;28;19928;-69
2023/01/07 02:11:56;;;;;;;;;;;10.00;99.90;;;;;;5018069;28;20344;-69
2023/01/07 02:14:45;;;;;;;;;;;10.00;99.90;;;;;;5016952;28;20331;-69
2023/01/07 02:17:24;;;;;;;;;;;10.00;99.90;;;;;;5033289;28;19925;-69
2023/01/07 02:20:07;;;;;;;;;;;9.90;99.90;;;;;;5035721;28;20008;-69
2023/01/07 02:22:48;;;;;;;;;;;9.90;99.90;;;;;;5031340;28;19932;-69
2023/01/07 02:25:25;;;;;;;;;;;10.00;99.90;;;;;;5034554;28;19927;-70
2023/01/07 02:27:54;;;;;;;;;;;9.90;99.90;;;;;;5016710;28;20632;-70
2023/01/07 02:30:38;;;;;;;;;;;10.10;99.90;;;;;;5017235;28;19928;-71
2023/01/07 02:33:04;;;;;;;;;;;10.10;99.90;;;;;;5011994;28;20392;-70
2023/01/07 02:35:29;;;;;;;;;;;10.10;99.90;;;;;;5021138;28;19987;-71
2023/01/07 02:38:15;;;;;;;;;;;10.10;99.90;;;;;;5016737;28;19921;-70
2023/01/07 02:40:53;;;;;;;;;;;10.10;99.90;;;;;;5010846;28;19947;-70
2023/01/07 02:43:26;;;;;;;;;;;10.10;99.90;;;;;;5015968;28;20380;-70
2023/01/07 02:45:57;;;;;;;;;;;10.00;99.90;;;;;;5035357;28;19928;-71
2023/01/07 02:48:24;;;;;;;;;;;10.10;99.90;;;;;;5033404;28;20701;-71
2023/01/07 02:50:49;;;;;;;;;;;10.10;99.90;;;;;;5017311;28;19928;-71
2023/01/07 02:53:16;;;;;;;;;;;10.20;99.90;;;;;;5016547;28;19921;-71
2023/01/07 02:55:45;;;;;;;;;;;10.20;99.90;;;;;;5016437;28;19924;-71
2023/01/07 02:58:16;;;;;;;;;;;10.20;99.90;;;;;;5016636;28;19925;-71
2023/01/07 03:00:44;;;;;;;;;;;10.30;99.90;;;;;;5034264;28;19975;-71
2023/01/07 03:03:13;;;;;;;;;;;10.20;99.90;;;;;;5033043;28;19983;-70
2023/01/07 03:05:53;;;;;;;;;;;10.20;99.90;;;;;;5034907;28;19921;-71
2023/01/07 03:08:28;;;;;;;;;;;10.10;99.90;;;;;;5033929;28;19921;-70
2023/01/07 03:11:03;;;;;;;;;;;10.20;99.90;;;;;;5030470;28;19988;-70
2023/01/07 03:13:42;;;;;;;;;;;10.10;99.90;;;;;;5014086;28;19967;-70
2023/01/07 03:16:13;;;;;;;;;;;10.10;99.90;;;;;;5034539;28;19921;-71
2023/01/07 03:18:43;;;;;;;;;;;10.20;99.90;;;;;;5033623;28;19921;-71
2023/01/07 03:21:11;;;;;;;;;;;10.20;99.90;;;;;;5015944;28;20336;-71
2023/01/07 03:23:40;;;;;;;;;;;10.30;99.90;;;;;;5015436;28;19921;-71
2023/01/07 03:26:06;;;;;;;;;;;10.20;99.90;;;;;;5034130;28;19963;-71
2023/01/07 03:28:35;;;;;;;;;;;10.20;99.90;;;;;;5034328;28;19921;-71
2023/01/07 03:31:00;;;;;;;;;;;10.20;99.90;;;;;;5033268;28;20289;-71
2023/01/07 03:33:52;;;;;;;;;;;10.20;99.90;;;;;;5034066;28;19917;-71
2023/01/07 03:36:19;;;;;;;;;;;10.10;99.90;;;;;;5014919;28;20033;-71
2023/01/07 03:38:45;;;;;;;;;;;10.10;99.90;;;;;;5011357;28;19925;-71
2023/01/07 03:42:38;;;;;;;;;;;10.10;99.90;;;;;;5016130;28;19970;-70
2023/01/07 03:43:57;;;;;;;;;;;10.10;99.90;;;;;;5031150;28;19920;-71
2023/01/07 03:46:22;;;;;;;;;;;10.10;99.90;;;;;;5015469;28;20389;-71
2023/01/07 03:48:48;;;;;;;;;;;10.20;99.90;;;;;;5033495;28;20430;-71
2023/01/07 03:51:13;;;;;;;;;;;10.20;99.90;;;;;;5033723;28;19921;-71
2023/01/07 03:53:39;;;;;;;;;;;10.20;99.90;;;;;;5032892;28;20376;-71
2023/01/07 03:56:05;;;;;;;;;;;10.10;99.90;;;;;;5015592;28;19948;-70
2023/01/07 03:58:30;;;;;;;;;;;10.00;99.90;;;;;;5033171;28;20012;-70
2023/01/07 04:00:55;;;;;;;;;;;10.00;99.90;;;;;;5032648;28;20007;-71
2023/01/07 04:03:21;;;;;;;;;;;10.00;99.90;;;;;;5016057;28;20372;-71
2023/01/07 04:05:47;;;;;;;;;;;10.00;99.90;;;;;;5031332;28;19921;-71
2023/01/07 04:08:12;;;;;;;;;;;10.00;99.90;;;;;;5033139;28;19917;-70
2023/01/07 04:10:38;;;;;;;;;;;10.00;99.90;;;;;;5033406;28;19921;-70
2023/01/07 04:13:03;;;;;;;;;;;10.00;99.90;;;;;;5032685;28;19925;-70
2023/01/07 04:15:29;;;;;;;;;;;10.40;99.90;;;;;;5033068;28;19920;-70
2023/01/07 04:17:54;;;;;;;;;;;10.00;99.90;;;;;;5032864;28;19921;-70
2023/01/07 04:20:20;;;;;;;;;;;10.10;99.90;;;;;;5031403;28;20357;-70
2023/01/07 04:22:45;;;;;;;;;;;10.20;99.90;;;;;;5033305;28;19925;-71
2023/01/07 04:25:11;;;;;;;;;;;10.10;99.90;;;;;;5033004;28;20011;-70
2023/01/07 04:27:36;;;;;;;;;;;10.00;99.90;;;;;;5045443;28;19968;-70
2023/01/07 04:30:02;;;;;;;;;;;10.00;99.90;;;;;;5022049;28;19961;-71
2023/01/07 04:32:28;;;;;;;;;;;9.90;99.90;;;;;;5031775;28;19921;-71
2023/01/07 04:34:53;;;;;;;;;;;9.80;99.90;;;;;;5030487;28;19928;-70
2023/01/07 04:37:19;;;;;;;;;;;10.00;99.90;;;;;;5032575;28;20383;-69
2023/01/07 04:39:44;;;;;;;;;;;9.80;99.90;;;;;;5031345;28;19921;-70
2023/01/07 04:42:10;;;;;;;;;;;9.70;99.90;;;;;;5031121;28;20024;-70
2023/01/07 04:44:35;;;;;;;;;;;9.70;99.90;;;;;;5032909;28;19927;-70
2023/01/07 04:47:01;;;;;;;;;;;10.00;99.90;;;;;;5032356;28;20279;-70
2023/01/07 04:49:26;;;;;;;;;;;9.80;99.90;;;;;;5030636;28;19921;-70
2023/01/07 04:51:52;;;;;;;;;;;10.20;99.90;;;;;;5032537;28;19928;-70
2023/01/07 04:54:23;;;;;;;;;;;10.00;99.90;;;;;;5031109;28;19921;-70
2023/01/07 04:56:49;;;;;;;;;;;10.20;99.90;;;;;;5031472;28;19943;-70
2023/01/07 04:59:14;;;;;;;;;;;9.90;99.90;;;;;;5032561;28;19921;-70
2023/01/07 05:01:40;;;;;;;;;;;9.90;99.90;;;;;;5031200;28;20618;-70
2023/01/07 05:04:05;;;;;;;;;;;10.10;99.90;;;;;;5030194;28;19921;-70
2023/01/07 05:06:31;;;;;;;;;;;9.90;99.90;;;;;;5032048;28;19921;-70
2023/01/07 05:08:57;;;;;;;;;;;10.00;99.90;;;;;;5030674;28;20262;-70
2023/01/07 05:11:22;;;;;;;;;;;10.00;99.90;;;;;;5030164;28;19928;-70
2023/01/07 05:13:48;;;;;;;;;;;10.30;99.90;;;;;;5031103;28;19928;-70
2023/01/07 05:16:14;;;;;;;;;;;10.00;99.90;;;;;;5031336;28;19921;-70
2023/01/07 05:18:39;;;;;;;;;;;9.90;99.90;;;;;;5031933;28;19944;-70
2023/01/07 05:21:05;;;;;;;;;;;9.90;99.90;;;;;;5031191;28;20015;-70
2023/01/07 05:23:30;;;;;;;;;;;10.20;99.90;;;;;;5031394;28;19951;-70
2023/01/07 05:25:56;;;;;;;;;;;9.90;99.90;;;;;;5030636;28;20426;-70
2023/01/07 05:28:21;;;;;;;;;;;9.80;99.90;;;;;;5031971;28;19928;-70
2023/01/07 05:30:47;;;;;;;;;;;9.80;99.90;;;;;;5030874;28;19925;-70
2023/01/07 05:33:13;;;;;;;;;;;9.90;99.90;;;;;;5030647;28;20431;-70
2023/01/07 05:35:38;;;;;;;;;;;9.70;99.90;;;;;;5030580;28;20019;-70
2023/01/07 05:38:06;;;;;;;;;;;9.80;99.90;;;;;;5031484;28;19921;-70
2023/01/07 05:40:32;;;;;;;;;;;9.70;99.90;;;;;;5055219;28;19927;-70
2023/01/07 05:42:57;;;;;;;;;;;9.80;99.90;;;;;;5031171;28;19921;-70
2023/01/07 05:45:23;;;;;;;;;;;9.70;99.90;;;;;;5024530;28;20155;-70
2023/01/07 05:47:48;;;;;;;;;;;9.60;99.90;;;;;;5029772;28;19975;-71
2023/01/07 05:50:14;;;;;;;;;;;9.60;99.90;;;;;;5031832;28;19921;-70
2023/01/07 05:52:40;;;;;;;;;;;9.50;99.90;;;;;;5029427;28;20363;-71
2023/01/07 05:55:05;;;;;;;;;;;9.50;99.90;;;;;;5030959;28;19928;-70
2023/01/07 05:57:31;;;;;;;;;;;9.50;99.90;;;;;;5031057;28;19920;-70
2023/01/07 05:59:57;;;;;;;;;;;10.00;99.90;;;;;;5030903;28;19921;-70
2023/01/07 06:02:22;;;;;;;;;;;9.50;99.90;;;;;;5031583;28;19925;-71
2023/01/07 06:04:48;;;;;;;;;;;9.60;99.90;;;;;;5029842;28;20317;-71
2023/01/07 06:07:14;;;;;;;;;;;9.60;99.90;;;;;;5030775;28;19925;-71
2023/01/07 06:09:42;;;;;;;;;;;9.60;99.90;;;;;;5030622;28;20319;-71
2023/01/07 06:12:07;;;;;;;;;;;9.60;99.90;;;;;;5030728;28;19966;-70
2023/01/07 06:14:33;;;;;;;;;;;9.60;99.90;;;;;;5030598;28;20091;-70
2023/01/07 06:16:58;;;;;;;;;;;9.60;99.90;;;;;;5030019;28;19932;-70
2023/01/07 06:19:25;;;;;;;;;;;9.60;99.90;;;;;;5029660;28;20361;-71
2023/01/07 06:21:50;;;;;;;;;;;9.60;99.90;;;;;;5031436;28;20000;-71
2023/01/07 06:24:16;;;;;;;;;;;10.00;99.90;;;;;;5031482;28;19972;-70
2023/01/07 06:26:41;;;;;;;;;;;9.90;99.90;;;;;;5030516;28;19972;-70
2023/01/07 06:29:08;;;;;;;;;;;9.60;99.90;;;;;;5031711;28;19988;-70
2023/01/07 06:31:34;;;;;;;;;;;9.60;99.90;;;;;;5030917;28;20411;-71
2023/01/07 06:33:59;;;;;;;;;;;9.60;99.90;;;;;;5030482;28;19921;-71
2023/01/07 06:36:25;;;;;;;;;;;9.60;99.90;;;;;;5029620;28;19928;-70
2023/01/07 06:38:50;;;;;;;;;;;9.60;99.90;;;;;;5030236;28;19925;-71
2023/01/07 06:41:16;;;;;;;;;;;9.70;99.90;;;;;;5029308;28;19921;-70
2023/01/07 06:43:41;;;;;;;;;;;9.70;99.90;;;;;;5030815;28;19921;-71
2023/01/07 06:46:07;;;;;;;;;;;9.80;99.90;;;;;;5031286;28;20335;-70
2023/01/07 06:48:32;;;;;;;;;;;9.80;99.90;;;;;;5030303;28;19928;-71
2023/01/07 06:50:58;;;;;;;;;;;9.70;99.90;;;;;;5031531;28;19925;-70
2023/01/07 06:53:23;;;;;;;;;;;10.00;99.90;;;;;;5031012;28;19932;-71
2023/01/07 06:55:49;;;;;;;;;;;10.50;99.90;;;;;;5025278;28;20289;-70
2023/01/07 06:58:15;;;;;;;;;;;9.80;99.90;;;;;;5028996;28;19970;-69
2023/01/07 07:00:41;;;;;;;;;;;9.90;99.90;;;;;;5030294;28;20018;-69
2023/01/07 07:03:06;;;;;;;;;;;9.90;99.90;;;;;;5033555;28;19979;-70
2023/01/07 07:05:32;;;;;;;;;;;9.70;99.90;;;;;;5016545;28;20438;-70
2023/01/07 07:07:59;;;;;;;;;;;10.30;99.90;;;;;;5016923;28;19955;-69
2023/01/07 07:10:25;;;;;;;;;;;10.00;99.90;;;;;;5033392;28;19921;-69
2023/01/07 07:12:50;;;;;;;;;;;9.90;99.90;;;;;;5016568;28;20430;-69
2023/01/07 07:15:16;;;;;;;;;;;10.10;99.90;;;;;;5033826;28;19928;-70
2023/01/07 07:17:41;;;;;;;;;;;10.00;99.90;;;;;;5015858;28;19928;-70
2023/01/07 07:20:07;;;;;;;;;;;10.00;99.90;;;;;;5017187;28;19935;-69
2023/01/07 07:22:33;;;;;;;;;;;10.00;99.90;;;;;;5034206;28;20035;-69
2023/01/07 07:24:58;;;;;;;;;;;10.00;99.90;;;;;;5033545;28;20303;-69
2023/01/07 07:27:24;;;;;;;;;;;10.60;99.90;;;;;;5016080;28;20353;-70
2023/01/07 07:29:49;;;;;;;;;;;10.10;99.90;;;;;;5033658;28;19921;-70
2023/01/07 07:32:15;;;;;;;;;;;10.10;99.90;;;;;;5016287;28;19921;-70
2023/01/07 07:34:40;;;;;;;;;;;9.00;99.90;;;;;;5033910;28;20372;-71
2023/01/07 07:37:06;;;;;;;;;;;9.90;99.90;;;;;;5014657;28;20027;-70
2023/01/07 07:39:32;;;;;;;;;;;10.10;99.90;;;;;;5015558;28;19921;-71
2023/01/07 07:42:00;;;;;;;;;;;9.80;99.90;;;;;;5016441;28;19924;-70
2023/01/07 07:44:26;;;;;;;;;;;9.90;99.90;;;;;;5032163;28;19956;-71
2023/01/07 07:46:51;;;;;;;;;;;9.80;99.90;;;;;;5034152;28;19964;-72
2023/01/07 07:49:17;;;;;;;;;;;9.80;99.90;;;;;;5015665;28;20315;-70
2023/01/07 07:51:42;;;;;;;;;;;9.70;99.90;;;;;;5032487;28;19925;-70
2023/01/07 07:54:08;;;;;;;;;;;9.90;99.90;;;;;;5033570;28;19917;-71
2023/01/07 07:56:33;;;;;;;;;;;9.90;99.90;;;;;;5033323;28;19932;-71
2023/01/07 07:58:59;;;;;;;;;;;9.90;99.90;;;;;;5032551;28;19944;-71
2023/01/07 08:01:24;;;;;;;;;;;9.90;99.90;;;;;;5033370;28;20383;-70
2023/01/07 08:03:50;;;;;;;;;;;10.40;99.90;;;;;;5019957;28;20304;-72
2023/01/07 08:06:15;;;;;;;;;;;9.90;99.90;;;;;;5030759;28;19921;-73
2023/01/07 08:08:41;;;;;;;;;;;9.90;99.90;;;;;;5033150;28;19988;-70
2023/01/07 08:11:06;;;;;;;;;;;9.90;99.90;;;;;;5033325;28;19927;-71
2023/01/07 08:13:32;;;;;;;;;;;9.90;99.90;;;;;;5032097;28;19992;-70
2023/01/07 08:15:58;;;;;;;;;;;10.00;99.90;;;;;;5031544;28;20490;-73
2023/01/07 08:18:24;;;;;;;;;;;10.20;99.90;;;;;;5032053;28;20339;-71
2023/01/07 08:20:49;;;;;;;;;;;10.10;99.90;;;;;;5031299;28;19921;-83
2023/01/07 08:23:15;;;;;;;;;;;10.10;99.90;;;;;;5031363;28;20295;-74
2023/01/07 08:25:41;;;;;;;;;;;10.60;99.90;;;;;;5033343;28;19971;-72
2023/01/07 08:28:07;;;;;;;;;;;10.00;99.90;;;;;;5031808;28;19921;-72
2023/01/07 08:30:32;;;;;;;;;;;9.90;99.90;;;;;;5033153;28;19928;-71
2023/01/07 08:32:58;;;;;;;;;;;10.00;99.90;;;;;;5032707;28;20704;-72
2023/01/07 08:35:23;;;;;;;;;;;10.00;99.90;;;;;;5030868;28;19925;-71
2023/01/07 08:37:58;;;;;;;;;;;10.30;99.90;;;;;;5031627;28;19921;-71
2023/01/07 08:40:24;;;;;;;;;;;10.00;99.90;;;;;;5030421;28;19932;-71
2023/01/07 08:42:49;;;;;;;;;;;10.00;99.90;;;;;;5032343;28;19921;-72
2023/01/07 08:45:15;;;;;;;;;;;9.90;99.90;;;;;;5032338;28;19924;-74
2023/01/07 08:47:44;;;;;;;;;;;10.00;99.90;;;;;;5030283;28;19925;-73
2023/01/07 08:50:10;;;;;;;;;;;10.10;99.90;;;;;;5030951;28;20430;-73
2023/01/07 08:52:35;;;;;;;;;;;10.60;99.90;;;;;;5032734;28;19921;-73
2023/01/07 08:55:01;;;;;;;;;;;10.20;99.90;;;;;;5031109;28;19967;-73
2023/01/07 08:57:26;;;;;;;;;;;10.40;99.90;;;;;;5030061;28;19921;-72
2023/01/07 08:59:52;;;;;;;;;;;10.40;99.90;;;;;;5029263;28;19928;-72
2023/01/07 09:02:18;;;;;;;;;;;10.80;99.90;;;;;;5029785;28;20347;-73
2023/01/07 09:04:44;;;;;;;;;;;10.90;99.90;;;;;;5030901;28;20317;-73
2023/01/07 09:07:09;;;;;;;;;;;11.00;99.90;;;;;;5031187;28;20003;-73
2023/01/07 09:09:35;;;;;;;;;;;11.00;99.90;;;;;;5029932;28;19928;-73
2023/01/07 09:12:01;;;;;;;;;;;11.00;99.90;;;;;;5014114;28;19925;-73
2023/01/07 09:14:27;;;;;;;;;;;11.20;99.90;;;;;;5014403;28;19928;-73
2023/01/07 09:16:52;;;;;;;;;;;11.30;99.90;;;;;;5031316;28;19946;-74
2023/01/07 09:19:21;;;;;;;;;;;11.70;99.90;;;;;;5027369;28;20329;-74
2023/01/07 09:21:46;;;;;;;;;;;11.50;99.90;;;;;;5031899;28;19921;-74
2023/01/07 09:24:12;;;;;;;;;;;11.70;99.90;;;;;;5013468;28;19929;-74
2023/01/07 09:26:37;;;;;;;;;;;11.80;99.90;;;;;;5014023;28;19927;-74
2023/01/07 09:29:03;;;;;;;;;;;11.90;99.90;;;;;;5013717;28;19928;-74
2023/01/07 09:31:28;;;;;;;;;;;11.90;99.90;;;;;;5013459;28;19921;-74
2023/01/07 09:33:54;;;;;;;;;;;12.00;99.90;;;;;;5031884;28;19928;-73
2023/01/07 09:36:21;;;;;;;;;;;11.90;99.90;;;;;;5031103;28;19944;-73
2023/01/07 09:38:48;;;;;;;;;;;11.90;99.90;;;;;;5031705;28;20354;-74
2023/01/07 09:41:32;;;;;;;;;;;11.80;99.90;;;;;;5031339;28;20461;-73
2023/01/07 09:44:06;;;;;;;;;;;11.90;99.90;;;;;;5030047;28;19928;-74
2023/01/07 09:46:35;;;;;;;;;;;12.20;99.90;;;;;;5014136;28;19925;-74
2023/01/07 09:49:01;;;;;;;;;;;12.40;99.90;;;;;;5031087;28;19921;-74
2023/01/07 09:51:38;;;;;;;;;;;12.80;99.90;;;;;;5013416;28;20345;-79
2023/01/07 09:54:05;;;;;;;;;;;13.00;99.90;;;;;;5013819;28;19975;-73
2023/01/07 09:56:35;;;;;;;;;;;13.10;99.90;;;;;;5031117;28;19929;-71
2023/01/07 09:59:02;;;;;;;;;;;12.80;99.90;;;;;;5012995;28;19921;-72
2023/01/07 10:01:40;;;;;;;;;;;12.40;99.90;;;;;;5006739;28;19917;-70
2023/01/07 10:04:08;;;;;;;;;;;11.90;99.90;;;;;;5020665;28;19986;-73
2023/01/07 10:06:34;;;;;;;;;;;12.10;99.90;;;;;;5009150;28;19976;-71
2023/01/07 10:09:06;;;;;;;;;;;12.70;99.90;;;;;;4990395;28;20398;-72
2023/01/07 10:11:31;;;;;;;;;;;12.80;99.90;;;;;;5007476;28;19996;-72
2023/01/07 10:13:57;;;;;;;;;;;12.60;99.90;;;;;;4985141;28;19921;-71
2023/01/07 10:16:31;;;;;;;;;;;12.60;99.90;;;;;;5004971;28;20274;-72
2023/01/07 10:19:11;;;;;;;;;;;13.00;99.90;;;;;;5003735;28;19952;-72
2023/01/07 10:21:40;;;;;;;;;;;13.30;99.90;;;;;;4973176;28;19944;-71
2023/01/07 10:24:35;;;;;;;;;;;13.50;99.90;;;;;;5014724;28;19922;-69
2023/01/07 10:27:02;;;;;;;;;;;13.80;99.90;;;;;;4980678;28;19991;-70
2023/01/07 10:29:34;;;;;;;;;;;14.00;99.90;;;;;;4991671;28;19921;-74
2023/01/07 10:32:11;;;;;;;;;;;14.50;99.90;;;;;;4993775;28;20293;-74
2023/01/07 10:34:42;;;;;;;;;;;14.80;99.90;;;;;;5007969;28;19967;-73
2023/01/07 10:37:14;;;;;;;;;;;14.80;99.90;;;;;;5000186;28;20012;-71
2023/01/07 10:39:39;;;;;;;;;;;14.30;99.90;;;;;;5010836;28;19922;-70
2023/01/07 10:42:14;;;;;;;;;;;14.30;99.90;;;;;;4989888;28;19929;-73
2023/01/07 10:44:42;;;;;;;;;;;14.00;99.90;;;;;;5000078;28;20333;-71
2023/01/07 10:47:11;;;;;;;;;;;14.30;99.90;;;;;;5017355;28;19960;-71
2023/01/07 10:49:42;;;;;;;;;;;14.80;99.90;;;;;;5006826;28;19918;-70
2023/01/07 10:52:20;;;;;;;;;;;15.30;99.90;;;;;;5000606;28;19925;-68
2023/01/07 10:54:55;;;;;;;;;;;15.40;99.90;;;;;;5009175;28;20299;-73
2023/01/07 10:57:22;;;;;;;;;;;15.90;99.90;;;;;;5007040;28;19932;-71
2023/01/07 10:59:49;;;;;;;;;;;16.20;99.90;;;;;;4987656;28;19929;-68
2023/01/07 11:02:19;;;;;;;;;;;15.60;99.90;;;;;;4985373;28;20285;-69
2023/01/07 11:04:45;;;;;;;;;;;14.60;99.90;;;;;;5028852;28;19921;-75
2023/01/07 11:07:20;;;;;;;;;;;13.80;99.90;;;;;;5013704;28;20120;-69
2023/01/07 11:09:46;;;;;;;;;;;13.10;99.90;;;;;;5010729;28;19929;-69
2023/01/07 11:12:31;;;;;;;;;;;12.80;99.90;;;;;;5032183;28;20000;-69
2023/01/07 11:14:57;;;;;;;;;;;12.50;99.90;;;;;;5032850;28;19927;-71
2023/01/07 11:17:29;;;;;;;;;;;12.20;99.90;;;;;;5033891;28;19921;-70
2023/01/07 11:19:55;;;;;;;;;;;12.00;99.90;;;;;;5016141;28;19967;-71
2023/01/07 11:22:26;;;;;;;;;;;12.00;99.90;;;;;;5030645;28;19961;-72
2023/01/07 11:24:53;;;;;;;;;;;11.80;99.90;;;;;;5013590;28;19935;-72
2023/01/07 11:27:19;;;;;;;;;;;11.70;99.90;;;;;;5014555;28;19921;-73
2023/01/07 11:29:54;;;;;;;;;;;11.70;99.90;;;;;;5014029;28;20567;-71
2023/01/07 11:32:22;;;;;;;;;;;11.70;99.90;;;;;;5015183;28;19921;-71
2023/01/07 11:34:55;;;;;;;;;;;11.60;99.90;;;;;;5033375;28;19921;-77
2023/01/07 11:37:37;;;;;;;;;;;11.60;99.90;;;;;;5014854;28;19929;-72
2023/01/07 11:40:23;;;;;;;;;;;11.60;99.90;;;;;;5011882;28;20339;-72
2023/01/07 11:42:49;;;;;;;;;;;11.70;99.90;;;;;;5014399;28;19936;-71
2023/01/07 11:45:24;;;;;;;;;;;11.90;99.90;;;;;;5014670;28;19921;-71
2023/01/07 11:48:04;;;;;;;;;;;11.80;99.90;;;;;;5015595;28;20380;-74
2023/01/07 11:50:30;;;;;;;;;;;11.70;99.90;;;;;;5011855;28;19975;-71
2023/01/07 11:52:57;;;;;;;;;;;11.60;99.90;;;;;;5031747;28;19921;-70
2023/01/07 11:55:22;;;;;;;;;;;11.50;99.90;;;;;;5011963;28;19999;-69
2023/01/07 11:57:51;;;;;;;;;;;11.50;99.90;;;;;;5031317;28;20372;-71
2023/01/07 12:00:17;;;;;;;;;;;11.40;99.90;;;;;;5032657;28;20384;-72
2023/01/07 12:02:43;;;;;;;;;;;11.40;99.90;;;;;;5014378;28;19921;-71
2023/01/07 12:05:21;;;;;;;;;;;11.50;99.90;;;;;;5031518;28;19921;-73
2023/01/07 12:07:47;;;;;;;;;;;11.40;99.90;;;;;;5032787;28;19921;-72
2023/01/07 12:10:28;;;;;;;;;;;11.60;99.90;;;;;;5033192;28;19921;-71
2023/01/07 12:12:54;;;;;;;;;;;11.50;99.90;;;;;;5018742;28;19921;-73
2023/01/07 12:15:22;;;;;;;;;;;12.20;99.90;;;;;;5007923;28;20715;-72
2023/01/07 12:17:54;;;;;;;;;;;12.90;99.90;;;;;;5010097;28;19932;-71
2023/01/07 12:20:38;;;;;;;;;;;13.30;99.90;;;;;;5024240;28;19973;-72
2023/01/07 12:23:16;;;;;;;;;;;13.60;99.90;;;;;;5012415;28;19923;-74
2023/01/07 12:25:53;;;;;;;;;;;13.90;99.90;;;;;;5014068;28;19928;-71
2023/01/07 12:28:24;;;;;;;;;;;13.80;99.90;;;;;;5005848;28;19960;-74
2023/01/07 12:31:03;;;;;;;;;;;13.20;99.90;;;;;;5027171;28;19925;-71
2023/01/07 12:33:42;;;;;;;;;;;12.80;99.90;;;;;;5026281;28;19929;-70
2023/01/07 12:36:14;;;;;;;;;;;12.60;99.90;;;;;;5012669;28;20012;-69
2023/01/07 12:38:52;;;;;;;;;;;14.00;99.90;;;;;;5009303;28;19929;-72
2023/01/07 12:41:21;;;;;;;;;;;13.20;99.90;;;;;;5025957;28;19989;-73
2023/01/07 12:43:53;;;;;;;;;;;13.60;99.90;;;;;;5025372;28;19928;-71
2023/01/07 12:46:20;;;;;;;;;;;13.40;99.90;;;;;;5012095;28;19921;-75
2023/01/07 12:49:05;;;;;;;;;;;13.10;99.90;;;;;;5025702;28;20293;-69
2023/01/07 12:51:37;;;;;;;;;;;12.70;99.90;;;;;;5025313;28;19944;-71
2023/01/07 12:54:13;;;;;;;;;;;12.40;99.90;;;;;;5024890;28;19927;-71
2023/01/07 12:56:52;;;;;;;;;;;12.40;99.90;;;;;;5011355;28;20015;-72
2023/01/07 12:59:26;;;;;;;;;;;12.50;99.90;;;;;;5011667;28;20474;-68
2023/01/07 13:01:59;;;;;;;;;;;12.60;99.90;;;;;;5006645;28;19937;-68
2023/01/07 13:04:32;;;;;;;;;;;12.40;99.90;;;;;;5015480;28;19933;-70
2023/01/07 13:07:10;;;;;;;;;;;11.90;99.90;;;;;;5023701;28;19924;-68
2023/01/07 13:09:41;;;;;;;;;;;12.00;99.90;;;;;;5014151;28;19921;-68
2023/01/07 13:14:59;;;;;;;;;;;11.80;99.90;;;;;;5022118;28;19964;-68
2023/01/07 13:17:26;;;;;;;;;;;12.00;99.90;;;;;;5026084;28;20403;-69
2023/01/07 13:19:52;;;;;;;;;;;12.00;99.90;;;;;;5025769;28;20474;-69
2023/01/07 13:22:35;;;;;;;;;;;12.00;99.90;;;;;;5027662;28;19939;-69
2023/01/07 13:25:11;;;;;;;;;;;11.80;99.90;;;;;;5025910;28;19925;-69
2023/01/07 13:27:47;;;;;;;;;;;11.70;99.90;;;;;;5025524;28;19921;-68
2023/01/07 13:30:12;;;;;;;;;;;11.50;99.90;;;;;;5026278;28;19921;-69
2023/01/07 13:32:44;;;;;;;;;;;11.40;99.90;;;;;;5025589;28;19976;-70
2023/01/07 13:35:16;;;;;;;;;;;11.50;99.90;;;;;;5025418;28;19929;-70
2023/01/07 13:37:47;;;;;;;;;;;11.40;99.90;;;;;;5051638;28;19925;-70
2023/01/07 13:40:19;;;;;;;;;;;11.30;99.90;;;;;;5027406;28;19925;-70
2023/01/07 13:42:52;;;;;;;;;;;11.30;99.90;;;;;;5023999;28;19921;-68
2023/01/07 13:45:17;;;;;;;;;;;11.30;99.90;;;;;;5022812;28;19921;-69
2023/01/07 13:47:45;;;;;;;;;;;11.20;99.90;;;;;;5025148;28;20266;-70
2023/01/07 13:50:32;;;;;;;;;;;11.50;99.90;;;;;;5028376;28;19925;-70
2023/01/07 13:53:23;;;;;;;;;;;11.10;99.90;;;;;;5030839;28;19929;-70
2023/01/07 13:55:49;;;;;;;;;;;11.10;99.90;;;;;;5027028;28;19983;-70
2023/01/07 13:58:35;;;;;;;;;;;11.10;99.90;;;;;;5028680;28;19925;-70
2023/01/07 14:01:02;;;;;;;;;;;10.90;99.90;;;;;;5018090;28;20369;-70
2023/01/07 14:03:37;;;;;;;;;;;11.20;99.90;;;;;;5027817;28;19921;-71
2023/01/07 14:06:22;;;;;;;;;;;10.80;99.90;;;;;;5028396;28;19928;-69
2023/01/07 14:08:51;;;;;;;;;;;10.90;99.90;;;;;;5032305;28;19916;-69
2023/01/07 14:11:40;;;;;;;;;;;10.80;99.90;;;;;;5027277;28;19921;-70
2023/01/07 14:14:15;;;;;;;;;;;10.90;99.90;;;;;;5021777;28;19971;-69
2023/01/07 14:16:59;;;;;;;;;;;10.80;99.90;;;;;;5031934;28;19921;-70
2023/01/07 14:19:28;;;;;;;;;;;10.70;99.90;;;;;;5029288;28;20004;-69
2023/01/07 14:22:00;;;;;;;;;;;10.70;99.90;;;;;;5029146;28;19921;-69
2023/01/07 14:24:38;;;;;;;;;;;10.60;99.90;;;;;;5028015;28;21435;-68
2023/01/07 14:27:14;;;;;;;;;;;10.50;99.90;;;;;;5029601;28;20018;-70
2023/01/07 14:29:49;;;;;;;;;;;10.60;99.90;;;;;;5027033;28;20007;-72
2023/01/07 14:32:35;;;;;;;;;;;10.50;99.90;;;;;;5031334;28;19917;-70
2023/01/07 14:35:04;;;;;;;;;;;10.50;99.90;;;;;;5031251;28;20304;-68